createdAt,value
2016-10-25T00:00:55.734Z,0
2016-10-25T00:01:55.774Z,0
2016-10-25T00:02:55.841Z,0
2016-10-25T00:03:55.909Z,0
2016-10-25T00:04:55.939Z,0
2016-10-25T00:05:55.975Z,0
2016-10-25T00:06:56.042Z,0
2016-10-25T00:07:56.090Z,0
2016-10-25T00:08:56.168Z,0
2016-10-25T00:09:56.212Z,0
2016-10-25T00:10:56.281Z,0
2016-10-25T00:11:56.351Z,0
2016-10-25T00:12:56.376Z,0
2016-10-25T00:13:56.439Z,0
2016-10-25T00:14:56.500Z,0
2016-10-25T00:15:56.552Z,0
2016-10-25T00:16:56.631Z,0
2016-10-25T00:17:56.678Z,0
2016-10-25T00:18:56.727Z,0
2016-10-25T00:19:56.765Z,0
2016-10-25T00:20:56.835Z,0
2016-10-25T00:21:56.903Z,0
2016-10-25T00:22:56.929Z,0
2016-10-25T00:23:57.024Z,0
2016-10-25T00:24:57.044Z,0
2016-10-25T00:25:57.101Z,0
2016-10-25T00:26:57.173Z,0
2016-10-25T00:27:57.220Z,0
2016-10-25T00:28:57.267Z,0
2016-10-25T00:29:57.308Z,0
2016-10-25T00:30:57.350Z,0
2016-10-25T00:31:57.431Z,0
2016-10-25T00:32:57.478Z,0
2016-10-25T00:33:57.543Z,0
2016-10-25T00:34:57.626Z,0
2016-10-25T00:35:57.659Z,0
2016-10-25T00:36:57.714Z,0
2016-10-25T00:37:57.750Z,0
2016-10-25T00:38:57.823Z,0
2016-10-25T00:39:57.870Z,0
2016-10-25T00:40:57.943Z,0
2016-10-25T00:41:57.980Z,0
2016-10-25T00:42:58.056Z,0
2016-10-25T00:43:58.109Z,0
2016-10-25T00:44:58.148Z,0
2016-10-25T00:45:58.205Z,0
2016-10-25T00:46:58.270Z,0
2016-10-25T00:47:58.336Z,0
2016-10-25T00:48:58.358Z,0
2016-10-25T00:49:58.437Z,0
2016-10-25T00:50:58.817Z,0
2016-10-25T00:51:58.538Z,0
2016-10-25T00:52:58.566Z,0
2016-10-25T00:53:58.655Z,0
2016-10-25T00:54:58.688Z,0
2016-10-25T00:55:58.758Z,0
2016-10-25T00:56:58.804Z,0
2016-10-25T00:57:58.871Z,0
2016-10-25T00:58:58.934Z,0
2016-10-25T00:59:59.275Z,0
2016-10-25T01:00:59.051Z,0
2016-10-25T01:01:59.101Z,0
2016-10-25T01:02:59.136Z,0
2016-10-25T01:03:59.201Z,0
2016-10-25T01:04:59.261Z,0
2016-10-25T01:05:59.307Z,0
2016-10-25T01:06:59.392Z,0
2016-10-25T01:07:59.424Z,0
2016-10-25T01:08:59.527Z,0
2016-10-25T01:09:59.525Z,0
2016-10-25T01:10:59.584Z,0
2016-10-25T01:11:59.659Z,0
2016-10-25T01:12:59.691Z,0
2016-10-25T01:13:59.754Z,0
2016-10-25T01:14:59.799Z,0
2016-10-25T01:15:59.844Z,0
2016-10-25T01:16:59.931Z,0
2016-10-25T01:17:59.958Z,0
2016-10-25T01:19:00.018Z,0
2016-10-25T01:20:00.093Z,0
2016-10-25T01:21:00.134Z,0
2016-10-25T01:22:00.203Z,0
2016-10-25T01:23:00.269Z,0
2016-10-25T01:24:00.312Z,0
2016-10-25T01:25:00.354Z,0
2016-10-25T01:26:00.404Z,0
2016-10-25T01:27:00.475Z,0
2016-10-25T01:28:00.534Z,0
2016-10-25T01:29:00.597Z,0
2016-10-25T01:30:00.626Z,0
2016-10-25T01:31:00.690Z,0
2016-10-25T01:32:00.750Z,0
2016-10-25T01:33:00.812Z,0
2016-10-25T01:34:00.857Z,0
2016-10-25T01:35:00.917Z,0
2016-10-25T01:36:00.968Z,0
2016-10-25T01:37:01.044Z,0
2016-10-25T01:38:01.076Z,0
2016-10-25T01:39:01.122Z,0
2016-10-25T01:40:01.191Z,0
2016-10-25T01:41:01.220Z,0
2016-10-25T01:42:01.301Z,0
2016-10-25T01:43:01.345Z,0
2016-10-25T01:44:01.422Z,0
2016-10-25T01:45:01.475Z,0
2016-10-25T01:46:01.522Z,0
2016-10-25T01:47:01.589Z,0
2016-10-25T01:48:01.641Z,0
2016-10-25T01:49:01.692Z,0
2016-10-25T01:50:01.888Z,0
2016-10-25T01:51:01.807Z,0
2016-10-25T01:52:01.863Z,0
2016-10-25T01:53:01.920Z,0
2016-10-25T01:54:01.954Z,0
2016-10-25T01:55:02.032Z,0
2016-10-25T01:56:02.089Z,0
2016-10-25T01:57:02.131Z,0
2016-10-25T01:58:02.182Z,0
2016-10-25T01:59:02.226Z,0
2016-10-25T02:00:02.302Z,0
2016-10-25T02:01:02.350Z,0
2016-10-25T02:02:02.421Z,0
2016-10-25T02:03:02.457Z,0
2016-10-25T02:04:02.515Z,0
2016-10-25T02:05:02.554Z,0
2016-10-25T02:06:02.606Z,0
2016-10-25T02:07:02.677Z,0
2016-10-25T02:08:02.748Z,0
2016-10-25T02:09:02.784Z,0
2016-10-25T02:10:02.861Z,0
2016-10-25T02:11:02.882Z,0
2016-10-25T02:12:02.968Z,0
2016-10-25T02:13:02.992Z,0
2016-10-25T02:14:03.082Z,0
2016-10-25T02:15:03.134Z,0
2016-10-25T02:16:03.197Z,0
2016-10-25T02:17:03.536Z,0
2016-10-25T02:18:03.288Z,0
2016-10-25T02:19:03.347Z,0
2016-10-25T02:20:03.426Z,0
2016-10-25T02:21:03.455Z,0
2016-10-25T02:22:03.502Z,0
2016-10-25T02:23:03.577Z,0
2016-10-25T02:24:03.620Z,0
2016-10-25T02:25:03.678Z,0
2016-10-25T02:26:03.718Z,0
2016-10-25T02:27:03.795Z,0
2016-10-25T02:28:03.853Z,0
2016-10-25T02:29:03.914Z,0
2016-10-25T02:30:03.968Z,0
2016-10-25T02:31:04.152Z,0
2016-10-25T02:32:04.070Z,0
2016-10-25T02:33:04.118Z,0
2016-10-25T02:34:04.214Z,0
2016-10-25T02:35:04.210Z,0
2016-10-25T02:36:04.362Z,0
2016-10-25T02:37:04.366Z,0
2016-10-25T02:38:04.411Z,0
2016-10-25T02:39:04.447Z,0
2016-10-25T02:40:04.484Z,0
2016-10-25T02:41:04.566Z,0
2016-10-25T02:42:04.634Z,0
2016-10-25T02:43:04.723Z,0
2016-10-25T02:44:04.751Z,0
2016-10-25T02:45:04.812Z,0
2016-10-25T02:46:04.848Z,0
2016-10-25T02:47:04.898Z,0
2016-10-25T02:48:04.938Z,0
2016-10-25T02:49:05.203Z,0
2016-10-25T02:50:05.073Z,0
2016-10-25T02:51:05.156Z,0
2016-10-25T02:52:05.692Z,0
2016-10-25T02:53:05.233Z,0
2016-10-25T02:54:05.279Z,0
2016-10-25T02:55:05.323Z,0
2016-10-25T02:56:05.366Z,0
2016-10-25T02:57:05.432Z,0
2016-10-25T02:58:05.495Z,0
2016-10-25T02:59:05.554Z,0
2016-10-25T03:00:05.603Z,0
2016-10-25T03:01:05.677Z,0
2016-10-25T03:02:05.721Z,0
2016-10-25T03:03:05.796Z,0
2016-10-25T03:04:05.837Z,0
2016-10-25T03:05:05.928Z,0
2016-10-25T03:06:05.924Z,0
2016-10-25T03:07:05.978Z,0
2016-10-25T03:08:06.050Z,0
2016-10-25T03:09:06.143Z,0
2016-10-25T03:10:06.169Z,0
2016-10-25T03:11:06.216Z,0
2016-10-25T03:12:06.284Z,0
2016-10-25T03:13:06.336Z,0
2016-10-25T03:14:06.370Z,0
2016-10-25T03:15:06.423Z,0
2016-10-25T03:16:06.493Z,0
2016-10-25T03:17:06.570Z,0
2016-10-25T03:18:06.598Z,0
2016-10-25T03:19:06.699Z,0
2016-10-25T03:20:06.692Z,0
2016-10-25T03:21:06.776Z,0
2016-10-25T03:22:06.832Z,0
2016-10-25T03:23:06.859Z,0
2016-10-25T03:24:06.948Z,0
2016-10-25T03:25:06.977Z,0
2016-10-25T03:26:07.120Z,0
2016-10-25T03:27:07.429Z,0
2016-10-25T03:28:07.166Z,0
2016-10-25T03:29:07.214Z,0
2016-10-25T03:30:07.265Z,0
2016-10-25T03:31:07.345Z,0
2016-10-25T03:32:07.669Z,0
2016-10-25T03:33:07.436Z,0
2016-10-25T03:34:07.491Z,0
2016-10-25T03:35:07.534Z,0
2016-10-25T03:36:07.648Z,0
2016-10-25T03:37:07.673Z,0
2016-10-25T03:38:07.707Z,0
2016-10-25T03:39:07.760Z,0
2016-10-25T03:40:07.801Z,0
2016-10-25T03:41:07.870Z,0
2016-10-25T03:42:07.898Z,0
2016-10-25T03:43:07.981Z,0
2016-10-25T03:44:08.026Z,0
2016-10-25T03:45:08.089Z,0
2016-10-25T03:46:08.139Z,0
2016-10-25T03:47:08.190Z,0
2016-10-25T03:48:08.268Z,0
2016-10-25T03:49:08.317Z,0
2016-10-25T03:50:08.350Z,0
2016-10-25T03:51:08.423Z,0
2016-10-25T03:52:08.486Z,0
2016-10-25T03:53:08.548Z,0
2016-10-25T03:54:08.600Z,0
2016-10-25T03:55:08.637Z,0
2016-10-25T03:56:08.707Z,0
2016-10-25T03:57:08.770Z,0
2016-10-25T03:58:08.807Z,0
2016-10-25T03:59:08.855Z,0
2016-10-25T04:00:08.925Z,0
2016-10-25T04:01:08.959Z,0
2016-10-25T04:02:09.000Z,0
2016-10-25T04:03:09.062Z,0
2016-10-25T04:04:09.152Z,0
2016-10-25T04:05:09.179Z,0
2016-10-25T04:06:09.242Z,0
2016-10-25T04:07:09.309Z,0
2016-10-25T04:08:09.365Z,0
2016-10-25T04:09:09.396Z,0
2016-10-25T04:10:09.460Z,0
2016-10-25T04:11:09.523Z,0
2016-10-25T04:12:09.574Z,0
2016-10-25T04:13:09.640Z,0
2016-10-25T04:14:09.698Z,0
2016-10-25T04:15:09.754Z,0
2016-10-25T04:16:09.817Z,0
2016-10-25T04:17:09.853Z,0
2016-10-25T04:18:09.908Z,0
2016-10-25T04:19:09.962Z,0
2016-10-25T04:20:10.024Z,0
2016-10-25T04:21:10.072Z,0
2016-10-25T04:22:10.123Z,0
2016-10-25T04:23:10.199Z,0
2016-10-25T04:24:10.223Z,0
2016-10-25T04:25:10.299Z,0
2016-10-25T04:26:10.404Z,0
2016-10-25T04:27:10.393Z,0
2016-10-25T04:28:10.431Z,0
2016-10-25T04:29:10.530Z,0
2016-10-25T04:30:10.558Z,0
2016-10-25T04:31:10.626Z,0
2016-10-25T04:32:10.694Z,0
2016-10-25T04:33:10.740Z,0
2016-10-25T04:34:10.779Z,0
2016-10-25T04:35:10.845Z,0
2016-10-25T04:36:10.876Z,0
2016-10-25T04:37:10.945Z,0
2016-10-25T04:38:11.000Z,0
2016-10-25T04:39:11.094Z,0
2016-10-25T04:40:11.109Z,0
2016-10-25T04:41:11.189Z,0
2016-10-25T04:42:11.540Z,0
2016-10-25T04:43:11.463Z,0
2016-10-25T04:44:11.330Z,0
2016-10-25T04:45:11.403Z,0
2016-10-25T04:46:11.440Z,0
2016-10-25T04:47:11.506Z,0
2016-10-25T04:48:11.573Z,0
2016-10-25T04:49:11.596Z,0
2016-10-25T04:50:11.645Z,0
2016-10-25T04:51:11.721Z,0
2016-10-25T04:52:11.770Z,0
2016-10-25T04:53:11.849Z,0
2016-10-25T04:54:11.909Z,0
2016-10-25T04:55:11.973Z,0
2016-10-25T04:56:12.011Z,0
2016-10-25T04:57:12.067Z,0
2016-10-25T04:58:12.121Z,0
2016-10-25T04:59:12.201Z,0
2016-10-25T05:00:12.226Z,0
2016-10-25T05:01:12.281Z,0
2016-10-25T05:02:12.312Z,0
2016-10-25T05:03:12.382Z,0
2016-10-25T05:04:12.462Z,0
2016-10-25T05:05:12.514Z,0
2016-10-25T05:06:12.574Z,0
2016-10-25T05:07:12.632Z,0
2016-10-25T05:08:12.674Z,0
2016-10-25T05:09:12.732Z,0
2016-10-25T05:10:12.811Z,0
2016-10-25T05:11:12.829Z,0
2016-10-25T05:12:12.896Z,0
2016-10-25T05:13:12.948Z,0
2016-10-25T05:14:12.982Z,0
2016-10-25T05:15:13.058Z,0
2016-10-25T05:16:13.130Z,0
2016-10-25T05:17:13.159Z,0
2016-10-25T05:18:13.216Z,0
2016-10-25T05:19:13.321Z,0
2016-10-25T05:20:13.321Z,0
2016-10-25T05:21:13.387Z,0
2016-10-25T05:22:13.449Z,0
2016-10-25T05:23:13.502Z,0
2016-10-25T05:24:13.550Z,0
2016-10-25T05:25:13.595Z,0
2016-10-25T05:26:13.676Z,0
2016-10-25T05:27:13.728Z,0
2016-10-25T05:28:13.755Z,0
2016-10-25T05:29:13.848Z,0
2016-10-25T05:30:13.888Z,0
2016-10-25T05:31:13.957Z,0
2016-10-25T05:32:13.995Z,0
2016-10-25T05:33:14.042Z,0
2016-10-25T05:34:14.117Z,0
2016-10-25T05:35:14.160Z,0
2016-10-25T05:36:14.253Z,0
2016-10-25T05:37:14.271Z,0
2016-10-25T05:38:14.337Z,0
2016-10-25T05:39:14.383Z,0
2016-10-25T05:40:14.446Z,0
2016-10-25T05:41:14.483Z,0
2016-10-25T05:42:14.561Z,0
2016-10-25T05:43:14.634Z,0
2016-10-25T05:44:14.648Z,0
2016-10-25T05:45:14.708Z,0
2016-10-25T05:46:14.796Z,0
2016-10-25T05:47:14.831Z,0
2016-10-25T05:48:15.293Z,0
2016-10-25T05:49:14.936Z,0
2016-10-25T05:50:15.000Z,0
2016-10-25T05:51:15.054Z,0
2016-10-25T05:52:15.122Z,0
2016-10-25T05:53:15.166Z,0
2016-10-25T05:54:15.237Z,0
2016-10-25T05:55:15.275Z,0
2016-10-25T05:56:15.332Z,0
2016-10-25T05:57:15.400Z,0
2016-10-25T05:58:15.460Z,0
2016-10-25T05:59:15.494Z,0
2016-10-25T06:00:15.563Z,0
2016-10-25T06:01:15.592Z,0
2016-10-25T06:02:15.686Z,0
2016-10-25T06:03:15.743Z,0
2016-10-25T06:04:15.764Z,0
2016-10-25T06:05:15.839Z,0
2016-10-25T06:06:15.880Z,0
2016-10-25T06:07:15.944Z,0
2016-10-25T06:08:16.005Z,0
2016-10-25T06:09:16.041Z,0
2016-10-25T06:10:16.099Z,0
2016-10-25T06:11:16.173Z,0
2016-10-25T06:12:16.223Z,0
2016-10-25T06:13:16.289Z,0
2016-10-25T06:14:16.320Z,0
2016-10-25T06:15:16.391Z,0
2016-10-25T06:16:16.428Z,0
2016-10-25T06:17:16.491Z,0
2016-10-25T06:18:16.864Z,0
2016-10-25T06:19:16.613Z,0
2016-10-25T06:20:16.667Z,0
2016-10-25T06:21:16.713Z,0
2016-10-25T06:22:16.771Z,0
2016-10-25T06:23:16.833Z,0
2016-10-25T06:24:16.862Z,0
2016-10-25T06:25:16.957Z,0
2016-10-25T06:26:17.289Z,0
2016-10-25T06:27:17.073Z,0
2016-10-25T06:28:17.111Z,0
2016-10-25T06:29:17.152Z,0
2016-10-25T06:30:17.213Z,0
2016-10-25T06:31:17.271Z,0
2016-10-25T06:32:17.339Z,0
2016-10-25T06:33:17.398Z,0
2016-10-25T06:34:17.428Z,0
2016-10-25T06:35:17.465Z,0
2016-10-25T06:36:17.561Z,0
2016-10-25T06:37:17.600Z,0
2016-10-25T06:38:17.706Z,0
2016-10-25T06:39:17.699Z,0
2016-10-25T06:40:17.779Z,0
2016-10-25T06:41:17.843Z,0
2016-10-25T06:42:17.889Z,0
2016-10-25T06:43:17.943Z,0
2016-10-25T06:44:17.977Z,0
2016-10-25T06:45:18.054Z,0
2016-10-25T06:46:18.104Z,0
2016-10-25T06:47:18.169Z,0
2016-10-25T06:48:18.216Z,0
2016-10-25T06:49:18.280Z,0
2016-10-25T06:50:18.320Z,0
2016-10-25T06:51:18.399Z,0
2016-10-25T06:52:18.468Z,0
2016-10-25T06:53:18.515Z,0
2016-10-25T06:54:18.526Z,0
2016-10-25T06:55:18.601Z,0
2016-10-25T06:56:18.664Z,0
2016-10-25T06:57:18.722Z,0
2016-10-25T06:58:18.775Z,5
2016-10-25T06:59:18.824Z,0
2016-10-25T07:00:18.868Z,0
2016-10-25T07:01:19.081Z,0
2016-10-25T07:02:18.969Z,0
2016-10-25T07:03:19.049Z,0
2016-10-25T07:04:19.110Z,0
2016-10-25T07:05:19.144Z,0
2016-10-25T07:06:19.204Z,0
2016-10-25T07:07:19.254Z,0
2016-10-25T07:08:19.331Z,0
2016-10-25T07:09:19.393Z,0
2016-10-25T07:10:19.445Z,0
2016-10-25T07:11:19.486Z,0
2016-10-25T07:12:19.533Z,5
2016-10-25T07:13:19.599Z,5
2016-10-25T07:14:19.660Z,5
2016-10-25T07:15:19.704Z,5
2016-10-25T07:16:19.948Z,5
2016-10-25T07:17:19.838Z,5
2016-10-25T07:18:19.891Z,5
2016-10-25T07:19:19.941Z,5
2016-10-25T07:20:19.986Z,5
2016-10-25T07:21:20.045Z,5
2016-10-25T07:22:20.112Z,5
2016-10-25T07:23:20.142Z,5
2016-10-25T07:24:20.235Z,5
2016-10-25T07:25:20.258Z,5
2016-10-25T07:26:20.332Z,5
2016-10-25T07:27:20.349Z,5
2016-10-25T07:28:20.419Z,5
2016-10-25T07:29:20.491Z,5
2016-10-25T07:30:20.562Z,5
2016-10-25T07:31:20.591Z,5
2016-10-25T07:32:20.664Z,5
2016-10-25T07:33:20.729Z,5
2016-10-25T07:34:20.764Z,5
2016-10-25T07:35:20.826Z,5
2016-10-25T07:36:20.878Z,5
2016-10-25T07:37:20.958Z,5
2016-10-25T07:38:21.030Z,5
2016-10-25T07:39:21.062Z,5
2016-10-25T07:40:21.095Z,5
2016-10-25T07:41:21.163Z,5
2016-10-25T07:42:21.214Z,5
2016-10-25T07:43:21.281Z,5
2016-10-25T07:44:21.327Z,5
2016-10-25T07:45:21.370Z,5
2016-10-25T07:46:21.424Z,5
2016-10-25T07:47:21.490Z,5
2016-10-25T07:48:21.553Z,5
2016-10-25T07:49:21.605Z,5
2016-10-25T07:50:21.640Z,5
2016-10-25T07:51:21.698Z,5
2016-10-25T07:52:21.767Z,5
2016-10-25T07:53:21.819Z,5
2016-10-25T07:54:21.868Z,5
2016-10-25T07:55:21.942Z,5
2016-10-25T07:56:21.990Z,5
2016-10-25T07:57:22.062Z,5
2016-10-25T07:58:22.093Z,5
2016-10-25T07:59:22.146Z,5
2016-10-25T08:00:22.209Z,5
2016-10-25T08:01:22.274Z,5
2016-10-25T08:02:22.308Z,5
2016-10-25T08:03:22.384Z,5
2016-10-25T08:04:22.447Z,5
2016-10-25T08:05:22.498Z,5
2016-10-25T08:06:22.536Z,5
2016-10-25T08:07:22.598Z,5
2016-10-25T08:08:22.650Z,5
2016-10-25T08:09:22.684Z,10
2016-10-25T08:10:22.742Z,10
2016-10-25T08:11:22.816Z,15
2016-10-25T08:12:22.882Z,15
2016-10-25T08:13:22.945Z,15
2016-10-25T08:14:22.980Z,15
2016-10-25T08:15:23.064Z,20
2016-10-25T08:16:23.108Z,20
2016-10-25T08:17:23.154Z,15
2016-10-25T08:18:23.219Z,15
2016-10-25T08:19:23.252Z,15
2016-10-25T08:20:23.350Z,15
2016-10-25T08:21:23.378Z,20
2016-10-25T08:22:23.542Z,25
2016-10-25T08:23:23.499Z,30
2016-10-25T08:24:23.559Z,30
2016-10-25T08:25:23.621Z,30
2016-10-25T08:26:23.644Z,25
2016-10-25T08:27:23.685Z,25
2016-10-25T08:28:23.744Z,20
2016-10-25T08:29:23.809Z,25
2016-10-25T08:30:23.913Z,25
2016-10-25T08:31:23.923Z,20
2016-10-25T08:32:23.969Z,20
2016-10-25T08:33:24.057Z,25
2016-10-25T08:34:24.087Z,25
2016-10-25T08:35:24.147Z,25
2016-10-25T08:36:24.214Z,20
2016-10-25T08:37:24.289Z,25
2016-10-25T08:38:24.300Z,30
2016-10-25T08:39:24.691Z,30
2016-10-25T08:40:24.423Z,20
2016-10-25T08:41:24.703Z,20
2016-10-25T08:42:24.734Z,25
2016-10-25T08:43:24.791Z,25
2016-10-25T08:44:24.673Z,25
2016-10-25T08:45:24.721Z,25
2016-10-25T08:46:24.772Z,30
2016-10-25T08:47:24.863Z,35
2016-10-25T08:48:24.877Z,40
2016-10-25T08:49:24.930Z,40
2016-10-25T08:50:24.997Z,50
2016-10-25T08:51:25.064Z,45
2016-10-25T08:52:25.431Z,45
2016-10-25T08:53:25.140Z,40
2016-10-25T08:54:25.193Z,40
2016-10-25T08:55:25.559Z,45
2016-10-25T08:56:25.317Z,40
2016-10-25T08:57:25.368Z,55
2016-10-25T08:58:25.454Z,60
2016-10-25T08:59:25.472Z,40
2016-10-25T09:00:25.561Z,40
2016-10-25T09:01:25.594Z,45
2016-10-25T09:02:25.663Z,45
2016-10-25T09:03:25.743Z,45
2016-10-25T09:04:25.773Z,45
2016-10-25T09:05:25.819Z,40
2016-10-25T09:06:25.888Z,35
2016-10-25T09:07:25.930Z,40
2016-10-25T09:08:26.001Z,35
2016-10-25T09:09:26.039Z,30
2016-10-25T09:10:26.556Z,30
2016-10-25T09:11:26.153Z,30
2016-10-25T09:12:26.408Z,30
2016-10-25T09:13:26.470Z,30
2016-10-25T09:14:26.337Z,30
2016-10-25T09:15:26.371Z,25
2016-10-25T09:16:26.449Z,25
2016-10-25T09:17:26.500Z,25
2016-10-25T09:18:26.566Z,25
2016-10-25T09:19:26.620Z,20
2016-10-25T09:20:26.670Z,20
2016-10-25T09:21:26.729Z,20
2016-10-25T09:22:26.774Z,15
2016-10-25T09:23:26.815Z,20
2016-10-25T09:24:26.896Z,15
2016-10-25T09:25:26.925Z,20
2016-10-25T09:26:26.981Z,20
2016-10-25T09:27:27.059Z,20
2016-10-25T09:28:27.091Z,15
2016-10-25T09:29:27.150Z,15
2016-10-25T09:30:27.214Z,15
2016-10-25T09:31:27.301Z,15
2016-10-25T09:32:27.318Z,15
2016-10-25T09:33:27.383Z,15
2016-10-25T09:34:27.417Z,15
2016-10-25T09:35:27.506Z,15
2016-10-25T09:36:27.555Z,15
2016-10-25T09:37:27.918Z,15
2016-10-25T09:38:27.691Z,20
2016-10-25T09:39:27.711Z,20
2016-10-25T09:40:27.806Z,15
2016-10-25T09:41:27.817Z,20
2016-10-25T09:42:27.896Z,15
2016-10-25T09:43:28.177Z,15
2016-10-25T09:44:28.196Z,15
2016-10-25T09:45:28.245Z,15
2016-10-25T09:46:43.024Z,15
2016-10-25T09:47:28.179Z,20
2016-10-25T09:48:28.227Z,15
2016-10-25T09:49:28.270Z,15
2016-10-25T09:50:28.351Z,15
2016-10-25T09:51:28.377Z,15
2016-10-25T09:52:28.458Z,10
2016-10-25T09:53:28.505Z,15
2016-10-25T09:54:28.559Z,15
2016-10-25T09:55:28.594Z,15
2016-10-25T09:56:28.907Z,15
2016-10-25T09:57:28.750Z,15
2016-10-25T09:58:28.778Z,15
2016-10-25T09:59:28.830Z,10
2016-10-25T10:00:28.886Z,10
2016-10-25T10:01:28.968Z,15
2016-10-25T10:02:29.004Z,10
2016-10-25T10:03:29.052Z,15
2016-10-25T10:04:29.446Z,10
2016-10-25T10:05:29.154Z,10
2016-10-25T10:06:29.207Z,10
2016-10-25T10:07:29.266Z,15
2016-10-25T10:08:29.350Z,15
2016-10-25T10:09:29.397Z,15
2016-10-25T10:10:29.457Z,15
2016-10-25T10:11:29.490Z,10
2016-10-25T10:12:29.548Z,10
2016-10-25T10:13:29.586Z,10
2016-10-25T10:14:29.668Z,15
2016-10-25T10:15:29.694Z,15
2016-10-25T10:16:29.987Z,10
2016-10-25T10:17:29.839Z,10
2016-10-25T10:18:29.879Z,10
2016-10-25T10:19:29.947Z,15
2016-10-25T10:20:30.003Z,10
2016-10-25T10:21:30.066Z,10
2016-10-25T10:22:30.098Z,15
2016-10-25T10:23:30.162Z,15
2016-10-25T10:24:30.235Z,15
2016-10-25T10:25:30.290Z,15
2016-10-25T10:26:30.315Z,15
2016-10-25T10:27:30.396Z,15
2016-10-25T10:28:30.470Z,20
2016-10-25T10:29:30.503Z,20
2016-10-25T10:30:30.544Z,20
2016-10-25T10:31:30.594Z,15
2016-10-25T10:32:30.653Z,15
2016-10-25T10:33:30.730Z,15
2016-10-25T10:34:30.781Z,15
2016-10-25T10:35:30.854Z,15
2016-10-25T10:36:30.915Z,15
2016-10-25T10:37:30.953Z,15
2016-10-25T10:38:30.992Z,15
2016-10-25T10:39:31.048Z,15
2016-10-25T10:40:31.218Z,15
2016-10-25T10:41:31.140Z,15
2016-10-25T10:42:31.226Z,15
2016-10-25T10:43:31.264Z,15
2016-10-25T10:44:31.357Z,15
2016-10-25T10:45:31.400Z,15
2016-10-25T10:46:31.643Z,15
2016-10-25T10:47:31.745Z,15
2016-10-25T10:48:31.558Z,15
2016-10-25T10:49:31.599Z,20
2016-10-25T10:50:31.657Z,15
2016-10-25T10:51:31.727Z,15
2016-10-25T10:52:31.778Z,20
2016-10-25T10:53:46.776Z,20
2016-10-25T10:54:31.885Z,20
2016-10-25T10:55:31.951Z,20
2016-10-25T10:56:32.000Z,20
2016-10-25T10:57:32.085Z,20
2016-10-25T10:58:32.112Z,20
2016-10-25T10:59:32.180Z,20
2016-10-25T11:00:32.247Z,20
2016-10-25T11:01:32.331Z,20
2016-10-25T11:02:32.323Z,20
2016-10-25T11:03:32.395Z,20
2016-10-25T11:04:32.476Z,20
2016-10-25T11:05:32.495Z,15
2016-10-25T11:06:32.567Z,15
2016-10-25T11:07:32.619Z,15
2016-10-25T11:08:32.665Z,15
2016-10-25T11:09:32.727Z,15
2016-10-25T11:10:32.812Z,10
2016-10-25T11:11:32.838Z,10
2016-10-25T11:12:32.889Z,10
2016-10-25T11:13:32.965Z,10
2016-10-25T11:14:32.994Z,10
2016-10-25T11:15:33.079Z,10
2016-10-25T11:16:33.139Z,10
2016-10-25T11:17:33.173Z,10
2016-10-25T11:18:33.479Z,10
2016-10-25T11:19:33.313Z,10
2016-10-25T11:20:33.359Z,10
2016-10-25T11:21:33.414Z,10
2016-10-25T11:22:33.437Z,10
2016-10-25T11:23:33.528Z,10
2016-10-25T11:24:33.570Z,10
2016-10-25T11:25:33.624Z,10
2016-10-25T11:26:33.695Z,10
2016-10-25T11:27:33.725Z,10
2016-10-25T11:28:33.779Z,10
2016-10-25T11:29:33.840Z,5
2016-10-25T11:30:33.960Z,10
2016-10-25T11:31:33.957Z,10
2016-10-25T11:32:34.000Z,10
2016-10-25T11:33:34.063Z,10
2016-10-25T11:34:34.112Z,10
2016-10-25T11:35:34.182Z,10
2016-10-25T11:36:34.238Z,10
2016-10-25T11:37:34.284Z,10
2016-10-25T11:38:34.358Z,10
2016-10-25T11:39:34.394Z,10
2016-10-25T11:40:34.468Z,10
2016-10-25T11:41:34.506Z,10
2016-10-25T11:42:34.572Z,10
2016-10-25T11:43:34.634Z,10
2016-10-25T11:44:34.676Z,10
2016-10-25T11:45:34.748Z,10
2016-10-25T11:46:34.819Z,10
2016-10-25T11:47:34.850Z,10
2016-10-25T11:48:34.901Z,5
2016-10-25T11:49:34.979Z,10
2016-10-25T11:50:35.215Z,5
2016-10-25T11:51:35.072Z,5
2016-10-25T11:52:35.119Z,5
2016-10-25T11:53:35.198Z,5
2016-10-25T11:54:35.227Z,5
2016-10-25T11:55:35.318Z,5
2016-10-25T11:56:35.354Z,5
2016-10-25T11:57:35.405Z,5
2016-10-25T11:58:35.491Z,5
2016-10-25T11:59:35.540Z,5
2016-10-25T12:00:35.588Z,5
2016-10-25T12:01:35.629Z,5
2016-10-25T12:02:35.682Z,5
2016-10-25T12:03:35.754Z,5
2016-10-25T12:04:35.794Z,5
2016-10-25T12:05:35.865Z,5
2016-10-25T12:06:35.903Z,5
2016-10-25T12:07:35.983Z,5
2016-10-25T12:08:36.050Z,5
2016-10-25T12:09:36.084Z,5
2016-10-25T12:10:36.133Z,5
2016-10-25T12:11:36.199Z,5
2016-10-25T12:12:36.244Z,5
2016-10-25T12:13:36.284Z,5
2016-10-25T12:14:36.355Z,5
2016-10-25T12:15:36.436Z,5
2016-10-25T12:16:36.445Z,5
2016-10-25T12:17:36.523Z,0
2016-10-25T12:18:36.584Z,0
2016-10-25T12:19:36.856Z,0
2016-10-25T12:20:36.874Z,0
2016-10-25T12:21:36.962Z,5
2016-10-25T12:22:36.814Z,5
2016-10-25T12:23:36.851Z,5
2016-10-25T12:24:36.891Z,5
2016-10-25T12:25:36.975Z,5
2016-10-25T12:26:37.019Z,5
2016-10-25T12:27:37.174Z,5
2016-10-25T12:28:37.134Z,5
2016-10-25T12:29:37.213Z,5
2016-10-25T12:30:37.236Z,5
2016-10-25T12:31:37.643Z,5
2016-10-25T12:32:37.366Z,5
2016-10-25T12:33:37.431Z,5
2016-10-25T12:34:37.455Z,5
2016-10-25T12:35:37.551Z,5
2016-10-25T12:36:37.590Z,5
2016-10-25T12:37:37.634Z,5
2016-10-25T12:38:37.692Z,5
2016-10-25T12:39:37.752Z,5
2016-10-25T12:40:37.813Z,5
2016-10-25T12:41:37.857Z,5
2016-10-25T12:42:37.951Z,5
2016-10-25T12:43:38.009Z,5
2016-10-25T12:44:38.336Z,5
2016-10-25T12:45:38.090Z,5
2016-10-25T12:46:38.154Z,5
2016-10-25T12:47:38.201Z,5
2016-10-25T12:48:38.280Z,5
2016-10-25T12:49:38.351Z,5
2016-10-25T12:50:38.375Z,5
2016-10-25T12:51:38.433Z,5
2016-10-25T12:52:38.508Z,5
2016-10-25T12:53:38.535Z,5
2016-10-25T12:54:38.585Z,5
2016-10-25T12:55:38.660Z,5
2016-10-25T12:56:38.706Z,5
2016-10-25T12:57:38.765Z,5
2016-10-25T12:58:38.812Z,5
2016-10-25T12:59:38.868Z,5
2016-10-25T13:00:38.930Z,5
2016-10-25T13:01:38.997Z,5
2016-10-25T13:02:39.032Z,5
2016-10-25T13:03:39.103Z,10
2016-10-25T13:04:39.185Z,10
2016-10-25T13:05:39.223Z,10
2016-10-25T13:06:39.271Z,10
2016-10-25T13:07:39.349Z,10
2016-10-25T13:08:39.384Z,5
2016-10-25T13:09:39.456Z,5
2016-10-25T13:10:39.478Z,10
2016-10-25T13:11:39.529Z,10
2016-10-25T13:12:39.596Z,10
2016-10-25T13:13:39.804Z,5
2016-10-25T13:14:39.726Z,5
2016-10-25T13:15:39.771Z,5
2016-10-25T13:16:39.813Z,5
2016-10-25T13:17:39.853Z,10
2016-10-25T13:18:39.926Z,10
2016-10-25T13:19:39.989Z,10
2016-10-25T13:20:40.088Z,10
2016-10-25T13:21:40.099Z,10
2016-10-25T13:22:40.143Z,10
2016-10-25T13:23:40.227Z,10
2016-10-25T13:24:40.297Z,5
2016-10-25T13:25:40.335Z,5
2016-10-25T13:26:40.403Z,5
2016-10-25T13:27:40.429Z,5
2016-10-25T13:28:40.512Z,5
2016-10-25T13:29:40.563Z,5
2016-10-25T13:30:40.629Z,5
2016-10-25T13:31:40.682Z,5
2016-10-25T13:32:40.712Z,5
2016-10-25T13:33:40.789Z,5
2016-10-25T13:34:40.818Z,5
2016-10-25T13:35:40.898Z,5
2016-10-25T13:36:40.944Z,5
2016-10-25T13:37:40.992Z,5
2016-10-25T13:38:41.055Z,5
2016-10-25T13:39:41.135Z,5
2016-10-25T13:40:41.161Z,5
2016-10-25T13:41:41.205Z,5
2016-10-25T13:42:41.296Z,5
2016-10-25T13:43:41.313Z,5
2016-10-25T13:44:41.400Z,5
2016-10-25T13:45:41.452Z,5
2016-10-25T13:46:41.521Z,5
2016-10-25T13:47:41.565Z,5
2016-10-25T13:48:41.649Z,0
2016-10-25T13:49:41.691Z,5
2016-10-25T13:50:41.717Z,5
2016-10-25T13:51:41.771Z,5
2016-10-25T13:52:41.859Z,5
2016-10-25T13:53:41.916Z,5
2016-10-25T13:54:41.943Z,5
2016-10-25T13:55:42.007Z,5
2016-10-25T13:56:42.078Z,5
2016-10-25T13:57:42.130Z,5
2016-10-25T13:58:42.155Z,5
2016-10-25T13:59:42.240Z,5
2016-10-25T14:00:42.618Z,5
2016-10-25T14:01:42.341Z,5
2016-10-25T14:02:42.391Z,5
2016-10-25T14:03:42.461Z,5
2016-10-25T14:04:42.502Z,5
2016-10-25T14:05:42.564Z,5
2016-10-25T14:06:42.914Z,5
2016-10-25T14:07:42.654Z,5
2016-10-25T14:08:42.714Z,5
2016-10-25T14:09:42.991Z,5
2016-10-25T14:10:42.842Z,0
2016-10-25T14:11:42.879Z,0
2016-10-25T14:12:42.957Z,0
2016-10-25T14:13:43.053Z,0
2016-10-25T14:14:43.100Z,0
2016-10-25T14:15:43.111Z,0
2016-10-25T14:16:43.183Z,0
2016-10-25T14:17:43.254Z,0
2016-10-25T14:18:43.285Z,0
2016-10-25T14:19:43.321Z,0
2016-10-25T14:20:43.389Z,0
2016-10-25T14:21:43.458Z,0
2016-10-25T14:22:43.517Z,0
2016-10-25T14:23:43.564Z,0
2016-10-25T14:24:43.654Z,0
2016-10-25T14:25:43.675Z,0
2016-10-25T14:26:43.731Z,0
2016-10-25T14:27:43.797Z,0
2016-10-25T14:28:43.854Z,0
2016-10-25T14:29:43.909Z,0
2016-10-25T14:30:43.932Z,0
2016-10-25T14:31:44.017Z,0
2016-10-25T14:32:44.064Z,0
2016-10-25T14:33:44.153Z,0
2016-10-25T14:34:44.187Z,0
2016-10-25T14:35:44.239Z,0
2016-10-25T14:36:44.276Z,0
2016-10-25T14:37:44.359Z,0
2016-10-25T14:38:44.402Z,0
2016-10-25T14:39:44.462Z,0